sensor_id;sensor_type;location;lat;lon;timestamp;temperature;humidity
51613;DHT22;37694;51.748;14.326;2023-04-03T00:01:35;22.70;48.20
51613;DHT22;37694;51.748;14.326;2023-04-03T00:04:04;22.60;48.20
51613;DHT22;37694;51.748;14.326;2023-04-03T00:06:30;22.60;48.00
51613;DHT22;37694;51.748;14.326;2023-04-03T00:08:55;22.60;48.10
51613;DHT22;37694;51.748;14.326;2023-04-03T00:11:21;22.60;48.10
51613;DHT22;37694;51.748;14.326;2023-04-03T00:13:47;22.60;48.10
51613;DHT22;37694;51.748;14.326;2023-04-03T00:16:13;22.60;48.10
51613;DHT22;37694;51.748;14.326;2023-04-03T00:18:39;22.60;48.00
51613;DHT22;37694;51.748;14.326;2023-04-03T00:21:06;22.60;48.80
51613;DHT22;37694;51.748;14.326;2023-04-03T00:23:32;22.50;47.90
51613;DHT22;37694;51.748;14.326;2023-04-03T00:25:58;22.50;47.70
51613;DHT22;37694;51.748;14.326;2023-04-03T00:28:24;22.50;47.80
51613;DHT22;37694;51.748;14.326;2023-04-03T00:30:51;22.50;47.80
51613;DHT22;37694;51.748;14.326;2023-04-03T00:33:16;22.50;47.80
51613;DHT22;37694;51.748;14.326;2023-04-03T00:35:42;22.50;47.70
51613;DHT22;37694;51.748;14.326;2023-04-03T00:38:08;22.50;47.60
51613;DHT22;37694;51.748;14.326;2023-04-03T00:40:37;22.50;47.70
51613;DHT22;37694;51.748;14.326;2023-04-03T00:43:15;22.50;47.70
51613;DHT22;37694;51.748;14.326;2023-04-03T00:45:43;22.40;47.50
51613;DHT22;37694;51.748;14.326;2023-04-03T00:48:13;22.40;47.60
51613;DHT22;37694;51.748;14.326;2023-04-03T00:50:42;22.40;47.60
51613;DHT22;37694;51.748;14.326;2023-04-03T00:53:12;22.40;47.80
51613;DHT22;37694;51.748;14.326;2023-04-03T00:55:39;22.40;47.60
51613;DHT22;37694;51.748;14.326;2023-04-03T00:58:06;22.40;47.60
51613;DHT22;37694;51.748;14.326;2023-04-03T01:00:33;22.40;47.60
51613;DHT22;37694;51.748;14.326;2023-04-03T01:02:59;22.40;47.60
51613;DHT22;37694;51.748;14.326;2023-04-03T01:05:25;22.30;47.60
51613;DHT22;37694;51.748;14.326;2023-04-03T01:07:51;22.30;47.70
51613;DHT22;37694;51.748;14.326;2023-04-03T01:10:18;22.30;47.70
51613;DHT22;37694;51.748;14.326;2023-04-03T01:12:47;22.30;48.40
51613;DHT22;37694;51.748;14.326;2023-04-03T01:15:17;22.30;47.50
51613;DHT22;37694;51.748;14.326;2023-04-03T01:17:52;22.30;47.70
51613;DHT22;37694;51.748;14.326;2023-04-03T01:28:14;22.30;47.50
51613;DHT22;37694;51.748;14.326;2023-04-03T01:33:12;22.20;47.50
51613;DHT22;37694;51.748;14.326;2023-04-03T01:35:38;22.20;47.60
51613;DHT22;37694;51.748;14.326;2023-04-03T01:38:03;22.20;47.50
51613;DHT22;37694;51.748;14.326;2023-04-03T01:40:29;22.20;47.40
51613;DHT22;37694;51.748;14.326;2023-04-03T01:42:55;22.20;47.60
51613;DHT22;37694;51.748;14.326;2023-04-03T01:45:21;22.20;47.50
51613;DHT22;37694;51.748;14.326;2023-04-03T01:47:46;22.10;47.40
51613;DHT22;37694;51.748;14.326;2023-04-03T01:50:12;22.10;47.40
51613;DHT22;37694;51.748;14.326;2023-04-03T01:52:38;22.10;47.50
51613;DHT22;37694;51.748;14.326;2023-04-03T01:55:04;22.10;47.60
51613;DHT22;37694;51.748;14.326;2023-04-03T01:57:29;22.10;47.50
51613;DHT22;37694;51.748;14.326;2023-04-03T01:59:55;22.10;47.50
51613;DHT22;37694;51.748;14.326;2023-04-03T02:02:21;22.10;47.50
51613;DHT22;37694;51.748;14.326;2023-04-03T02:04:46;22.10;47.50
51613;DHT22;37694;51.748;14.326;2023-04-03T02:07:12;22.10;47.50
51613;DHT22;37694;51.748;14.326;2023-04-03T02:09:38;22.10;47.50
51613;DHT22;37694;51.748;14.326;2023-04-03T02:12:03;22.10;47.40
51613;DHT22;37694;51.748;14.326;2023-04-03T02:14:29;22.10;47.40
51613;DHT22;37694;51.748;14.326;2023-04-03T02:16:55;22.00;47.40
51613;DHT22;37694;51.748;14.326;2023-04-03T02:19:21;22.00;47.30
51613;DHT22;37694;51.748;14.326;2023-04-03T02:21:46;22.00;47.30
51613;DHT22;37694;51.748;14.326;2023-04-03T02:24:12;22.00;47.10
51613;DHT22;37694;51.748;14.326;2023-04-03T02:26:37;22.00;47.30
51613;DHT22;37694;51.748;14.326;2023-04-03T02:29:03;22.00;47.40
51613;DHT22;37694;51.748;14.326;2023-04-03T02:31:29;22.00;47.10
51613;DHT22;37694;51.748;14.326;2023-04-03T02:33:54;22.00;46.90
51613;DHT22;37694;51.748;14.326;2023-04-03T02:36:20;22.00;47.20
51613;DHT22;37694;51.748;14.326;2023-04-03T02:38:46;22.00;47.10
51613;DHT22;37694;51.748;14.326;2023-04-03T02:41:12;22.00;47.10
51613;DHT22;37694;51.748;14.326;2023-04-03T02:43:38;22.00;47.00
51613;DHT22;37694;51.748;14.326;2023-04-03T02:46:04;21.90;47.00
51613;DHT22;37694;51.748;14.326;2023-04-03T02:48:31;21.90;47.00
51613;DHT22;37694;51.748;14.326;2023-04-03T02:50:57;21.90;47.00
51613;DHT22;37694;51.748;14.326;2023-04-03T02:53:23;21.90;46.90
51613;DHT22;37694;51.748;14.326;2023-04-03T02:55:49;21.90;46.90
51613;DHT22;37694;51.748;14.326;2023-04-03T02:58:15;21.90;46.80
51613;DHT22;37694;51.748;14.326;2023-04-03T03:00:41;21.90;46.90
51613;DHT22;37694;51.748;14.326;2023-04-03T03:03:07;21.90;47.00
51613;DHT22;37694;51.748;14.326;2023-04-03T03:05:33;21.90;47.00
51613;DHT22;37694;51.748;14.326;2023-04-03T03:07:58;21.90;47.20
51613;DHT22;37694;51.748;14.326;2023-04-03T03:10:24;21.90;46.90
51613;DHT22;37694;51.748;14.326;2023-04-03T03:12:50;21.90;46.90
51613;DHT22;37694;51.748;14.326;2023-04-03T03:15:16;21.90;46.80
51613;DHT22;37694;51.748;14.326;2023-04-03T03:17:43;21.90;46.90
51613;DHT22;37694;51.748;14.326;2023-04-03T03:20:09;22.00;46.90
51613;DHT22;37694;51.748;14.326;2023-04-03T03:22:35;22.00;46.80
51613;DHT22;37694;51.748;14.326;2023-04-03T03:25:01;22.00;46.80
51613;DHT22;37694;51.748;14.326;2023-04-03T03:27:28;22.00;46.80
51613;DHT22;37694;51.748;14.326;2023-04-03T03:29:53;22.10;46.70
51613;DHT22;37694;51.748;14.326;2023-04-03T03:32:19;22.10;46.70
51613;DHT22;37694;51.748;14.326;2023-04-03T03:34:45;22.20;46.70
51613;DHT22;37694;51.748;14.326;2023-04-03T03:37:11;22.20;46.60
51613;DHT22;37694;51.748;14.326;2023-04-03T03:39:37;22.30;46.50
51613;DHT22;37694;51.748;14.326;2023-04-03T03:42:02;22.30;46.40
51613;DHT22;37694;51.748;14.326;2023-04-03T03:44:28;22.30;46.40
51613;DHT22;37694;51.748;14.326;2023-04-03T03:46:54;22.40;46.40
51613;DHT22;37694;51.748;14.326;2023-04-03T03:49:20;22.40;46.30
51613;DHT22;37694;51.748;14.326;2023-04-03T03:51:46;22.40;46.20
51613;DHT22;37694;51.748;14.326;2023-04-03T03:54:12;22.40;46.20
51613;DHT22;37694;51.748;14.326;2023-04-03T03:56:38;22.50;46.30
51613;DHT22;37694;51.748;14.326;2023-04-03T03:59:05;22.50;46.20
51613;DHT22;37694;51.748;14.326;2023-04-03T04:01:30;22.50;46.10
51613;DHT22;37694;51.748;14.326;2023-04-03T04:03:56;22.50;46.00
51613;DHT22;37694;51.748;14.326;2023-04-03T04:06:22;22.60;46.10
51613;DHT22;37694;51.748;14.326;2023-04-03T04:08:47;22.60;46.00
51613;DHT22;37694;51.748;14.326;2023-04-03T04:11:13;22.60;45.90
51613;DHT22;37694;51.748;14.326;2023-04-03T04:13:39;22.60;45.80
51613;DHT22;37694;51.748;14.326;2023-04-03T04:16:05;22.60;45.80
51613;DHT22;37694;51.748;14.326;2023-04-03T04:18:31;22.60;46.60
51613;DHT22;37694;51.748;14.326;2023-04-03T04:20:56;22.60;45.60
51613;DHT22;37694;51.748;14.326;2023-04-03T04:23:22;22.60;45.70
51613;DHT22;37694;51.748;14.326;2023-04-03T04:25:49;22.60;45.70
51613;DHT22;37694;51.748;14.326;2023-04-03T04:28:16;22.60;45.80
51613;DHT22;37694;51.748;14.326;2023-04-03T04:30:42;22.70;45.70
51613;DHT22;37694;51.748;14.326;2023-04-03T04:33:08;22.70;45.70
51613;DHT22;37694;51.748;14.326;2023-04-03T04:35:34;22.70;45.60
51613;DHT22;37694;51.748;14.326;2023-04-03T04:38:00;22.70;45.60
51613;DHT22;37694;51.748;14.326;2023-04-03T04:40:26;22.80;45.70
51613;DHT22;37694;51.748;14.326;2023-04-03T04:42:51;22.80;46.50
51613;DHT22;37694;51.748;14.326;2023-04-03T04:45:17;22.90;45.60
51613;DHT22;37694;51.748;14.326;2023-04-03T04:47:43;23.00;45.50
51613;DHT22;37694;51.748;14.326;2023-04-03T04:50:10;23.10;45.40
51613;DHT22;37694;51.748;14.326;2023-04-03T04:52:36;23.20;45.30
51613;DHT22;37694;51.748;14.326;2023-04-03T04:55:02;23.30;45.50
51613;DHT22;37694;51.748;14.326;2023-04-03T04:57:28;23.30;45.10
51613;DHT22;37694;51.748;14.326;2023-04-03T04:59:54;23.40;45.00
51613;DHT22;37694;51.748;14.326;2023-04-03T05:02:20;23.50;44.90
51613;DHT22;37694;51.748;14.326;2023-04-03T05:04:45;23.50;44.80
51613;DHT22;37694;51.748;14.326;2023-04-03T05:07:11;23.60;44.80
51613;DHT22;37694;51.748;14.326;2023-04-03T05:09:36;23.60;44.70
51613;DHT22;37694;51.748;14.326;2023-04-03T05:12:03;23.70;44.70
51613;DHT22;37694;51.748;14.326;2023-04-03T05:14:29;23.70;44.60
51613;DHT22;37694;51.748;14.326;2023-04-03T05:16:55;23.70;44.60
51613;DHT22;37694;51.748;14.326;2023-04-03T05:19:21;23.80;44.60
51613;DHT22;37694;51.748;14.326;2023-04-03T05:21:47;23.80;44.60
51613;DHT22;37694;51.748;14.326;2023-04-03T05:24:14;23.90;44.80
51613;DHT22;37694;51.748;14.326;2023-04-03T05:26:41;23.90;44.80
51613;DHT22;37694;51.748;14.326;2023-04-03T05:29:07;23.90;44.90
51613;DHT22;37694;51.748;14.326;2023-04-03T05:31:33;23.90;44.80
51613;DHT22;37694;51.748;14.326;2023-04-03T05:33:59;23.90;44.80
51613;DHT22;37694;51.748;14.326;2023-04-03T05:36:25;23.90;44.80
51613;DHT22;37694;51.748;14.326;2023-04-03T05:38:51;23.90;44.80
51613;DHT22;37694;51.748;14.326;2023-04-03T05:41:17;23.90;44.90
51613;DHT22;37694;51.748;14.326;2023-04-03T05:43:43;23.90;45.10
51613;DHT22;37694;51.748;14.326;2023-04-03T05:46:13;23.90;45.10
51613;DHT22;37694;51.748;14.326;2023-04-03T05:48:40;23.90;45.10
51613;DHT22;37694;51.748;14.326;2023-04-03T05:51:06;23.90;45.30
51613;DHT22;37694;51.748;14.326;2023-04-03T05:53:35;23.90;45.00
51613;DHT22;37694;51.748;14.326;2023-04-03T05:56:03;23.90;45.20
51613;DHT22;37694;51.748;14.326;2023-04-03T05:58:29;23.80;45.10
51613;DHT22;37694;51.748;14.326;2023-04-03T06:00:55;23.80;45.10
51613;DHT22;37694;51.748;14.326;2023-04-03T06:03:20;23.80;45.00
51613;DHT22;37694;51.748;14.326;2023-04-03T06:05:46;23.80;45.10
51613;DHT22;37694;51.748;14.326;2023-04-03T06:08:12;23.80;45.30
51613;DHT22;37694;51.748;14.326;2023-04-03T06:10:38;23.80;45.30
51613;DHT22;37694;51.748;14.326;2023-04-03T06:13:04;23.90;45.60
51613;DHT22;37694;51.748;14.326;2023-04-03T06:15:30;23.90;45.40
51613;DHT22;37694;51.748;14.326;2023-04-03T06:17:56;23.90;45.00
51613;DHT22;37694;51.748;14.326;2023-04-03T06:20:22;23.90;45.10
51613;DHT22;37694;51.748;14.326;2023-04-03T06:22:48;23.90;44.70
51613;DHT22;37694;51.748;14.326;2023-04-03T06:25:14;23.90;44.50
51613;DHT22;37694;51.748;14.326;2023-04-03T06:27:40;23.90;44.00
51613;DHT22;37694;51.748;14.326;2023-04-03T06:30:06;23.90;44.20
51613;DHT22;37694;51.748;14.326;2023-04-03T06:32:32;23.90;44.20
51613;DHT22;37694;51.748;14.326;2023-04-03T06:34:58;23.90;44.20
51613;DHT22;37694;51.748;14.326;2023-04-03T06:37:24;23.90;44.20
51613;DHT22;37694;51.748;14.326;2023-04-03T06:39:51;23.90;44.20
51613;DHT22;37694;51.748;14.326;2023-04-03T06:42:17;23.90;44.00
51613;DHT22;37694;51.748;14.326;2023-04-03T06:44:43;23.90;44.00
51613;DHT22;37694;51.748;14.326;2023-04-03T06:47:12;23.80;43.90
51613;DHT22;37694;51.748;14.326;2023-04-03T06:49:38;23.80;43.90
51613;DHT22;37694;51.748;14.326;2023-04-03T06:52:04;23.80;43.90
51613;DHT22;37694;51.748;14.326;2023-04-03T06:54:31;23.80;43.70
51613;DHT22;37694;51.748;14.326;2023-04-03T06:56:57;23.80;43.70
51613;DHT22;37694;51.748;14.326;2023-04-03T06:59:22;23.80;43.60
51613;DHT22;37694;51.748;14.326;2023-04-03T07:01:48;23.80;43.50
51613;DHT22;37694;51.748;14.326;2023-04-03T07:04:14;23.80;43.30
51613;DHT22;37694;51.748;14.326;2023-04-03T07:06:40;23.80;43.30
51613;DHT22;37694;51.748;14.326;2023-04-03T07:09:08;23.80;43.20
51613;DHT22;37694;51.748;14.326;2023-04-03T07:11:34;23.70;43.20
51613;DHT22;37694;51.748;14.326;2023-04-03T07:14:02;23.70;42.90
51613;DHT22;37694;51.748;14.326;2023-04-03T07:16:28;23.70;42.80
51613;DHT22;37694;51.748;14.326;2023-04-03T07:18:56;23.70;43.00
51613;DHT22;37694;51.748;14.326;2023-04-03T07:21:22;23.70;42.80
51613;DHT22;37694;51.748;14.326;2023-04-03T07:23:48;23.70;42.70
51613;DHT22;37694;51.748;14.326;2023-04-03T07:26:14;23.70;42.60
51613;DHT22;37694;51.748;14.326;2023-04-03T07:28:40;23.70;42.60
51613;DHT22;37694;51.748;14.326;2023-04-03T07:31:08;23.70;42.60
51613;DHT22;37694;51.748;14.326;2023-04-03T07:33:39;23.70;42.40
51613;DHT22;37694;51.748;14.326;2023-04-03T07:36:05;23.70;42.30
51613;DHT22;37694;51.748;14.326;2023-04-03T07:38:33;23.70;42.20
51613;DHT22;37694;51.748;14.326;2023-04-03T07:40:59;23.70;42.30
51613;DHT22;37694;51.748;14.326;2023-04-03T07:43:25;23.70;42.30
51613;DHT22;37694;51.748;14.326;2023-04-03T07:45:51;23.70;42.20
51613;DHT22;37694;51.748;14.326;2023-04-03T07:48:22;23.70;42.10
51613;DHT22;37694;51.748;14.326;2023-04-03T07:50:48;23.70;42.10
51613;DHT22;37694;51.748;14.326;2023-04-03T07:53:14;23.70;42.00
51613;DHT22;37694;51.748;14.326;2023-04-03T07:55:40;23.70;42.00
51613;DHT22;37694;51.748;14.326;2023-04-03T07:58:16;23.70;41.90
51613;DHT22;37694;51.748;14.326;2023-04-03T08:00:42;23.70;41.70
51613;DHT22;37694;51.748;14.326;2023-04-03T08:03:10;23.70;41.80
51613;DHT22;37694;51.748;14.326;2023-04-03T08:05:41;23.70;41.60
51613;DHT22;37694;51.748;14.326;2023-04-03T08:08:08;23.70;41.60
51613;DHT22;37694;51.748;14.326;2023-04-03T08:10:34;23.70;41.60
51613;DHT22;37694;51.748;14.326;2023-04-03T08:13:01;23.60;41.60
51613;DHT22;37694;51.748;14.326;2023-04-03T08:15:26;23.60;41.60
51613;DHT22;37694;51.748;14.326;2023-04-03T08:17:52;23.70;41.60
51613;DHT22;37694;51.748;14.326;2023-04-03T08:20:18;23.60;41.50
51613;DHT22;37694;51.748;14.326;2023-04-03T08:22:44;23.70;41.50
51613;DHT22;37694;51.748;14.326;2023-04-03T08:25:10;23.70;41.50
51613;DHT22;37694;51.748;14.326;2023-04-03T08:27:35;23.60;41.40
51613;DHT22;37694;51.748;14.326;2023-04-03T08:30:01;23.60;41.40
51613;DHT22;37694;51.748;14.326;2023-04-03T08:32:27;23.60;41.40
51613;DHT22;37694;51.748;14.326;2023-04-03T08:34:53;23.60;41.30
51613;DHT22;37694;51.748;14.326;2023-04-03T08:37:19;23.60;41.20
51613;DHT22;37694;51.748;14.326;2023-04-03T08:39:45;23.60;41.20
51613;DHT22;37694;51.748;14.326;2023-04-03T08:44:59;23.70;41.10
51613;DHT22;37694;51.748;14.326;2023-04-03T08:47:47;23.70;41.20
51613;DHT22;37694;51.748;14.326;2023-04-03T08:50:20;23.60;41.10
51613;DHT22;37694;51.748;14.326;2023-04-03T08:52:55;23.60;41.20
51613;DHT22;37694;51.748;14.326;2023-04-03T08:55:40;23.60;41.10
51613;DHT22;37694;51.748;14.326;2023-04-03T09:00:57;23.60;41.00
51613;DHT22;37694;51.748;14.326;2023-04-03T09:03:23;23.60;41.00
51613;DHT22;37694;51.748;14.326;2023-04-03T09:08:43;23.50;41.00
51613;DHT22;37694;51.748;14.326;2023-04-03T09:11:16;23.50;41.00
51613;DHT22;37694;51.748;14.326;2023-04-03T09:21:47;23.40;40.90
51613;DHT22;37694;51.748;14.326;2023-04-03T09:24:15;23.40;41.10
51613;DHT22;37694;51.748;14.326;2023-04-03T09:26:51;23.40;41.10
51613;DHT22;37694;51.748;14.326;2023-04-03T09:29:21;23.40;40.90
51613;DHT22;37694;51.748;14.326;2023-04-03T09:31:50;23.40;41.00
51613;DHT22;37694;51.748;14.326;2023-04-03T09:34:36;23.40;41.00
51613;DHT22;37694;51.748;14.326;2023-04-03T09:37:03;23.30;40.90
51613;DHT22;37694;51.748;14.326;2023-04-03T09:39:33;23.30;41.00
51613;DHT22;37694;51.748;14.326;2023-04-03T09:42:24;23.30;41.00
51613;DHT22;37694;51.748;14.326;2023-04-03T09:45:02;23.30;40.90
51613;DHT22;37694;51.748;14.326;2023-04-03T09:47:33;23.30;41.00
51613;DHT22;37694;51.748;14.326;2023-04-03T09:50:21;23.20;41.00
51613;DHT22;37694;51.748;14.326;2023-04-03T09:52:49;23.20;40.80
51613;DHT22;37694;51.748;14.326;2023-04-03T09:55:24;23.10;40.80
51613;DHT22;37694;51.748;14.326;2023-04-03T10:00:34;23.10;40.90
51613;DHT22;37694;51.748;14.326;2023-04-03T10:03:01;23.10;40.80
51613;DHT22;37694;51.748;14.326;2023-04-03T10:10:41;23.10;40.70
51613;DHT22;37694;51.748;14.326;2023-04-03T10:13:20;23.10;40.70
51613;DHT22;37694;51.748;14.326;2023-04-03T10:15:55;23.10;40.60
51613;DHT22;37694;51.748;14.326;2023-04-03T10:18:32;23.10;40.50
51613;DHT22;37694;51.748;14.326;2023-04-03T10:24:31;23.20;40.40
51613;DHT22;37694;51.748;14.326;2023-04-03T10:27:13;23.20;40.30
51613;DHT22;37694;51.748;14.326;2023-04-03T10:34:57;23.10;40.30
51613;DHT22;37694;51.748;14.326;2023-04-03T10:37:30;23.10;40.30
51613;DHT22;37694;51.748;14.326;2023-04-03T10:40:09;23.10;40.30
51613;DHT22;37694;51.748;14.326;2023-04-03T10:45:15;23.10;40.40
51613;DHT22;37694;51.748;14.326;2023-04-03T10:58:43;23.00;40.10
51613;DHT22;37694;51.748;14.326;2023-04-03T11:01:16;23.00;40.10
51613;DHT22;37694;51.748;14.326;2023-04-03T11:03:47;23.00;40.30
51613;DHT22;37694;51.748;14.326;2023-04-03T11:06:16;23.00;40.00
51613;DHT22;37694;51.748;14.326;2023-04-03T11:09:05;23.00;40.20
51613;DHT22;37694;51.748;14.326;2023-04-03T11:11:36;22.90;39.90
51613;DHT22;37694;51.748;14.326;2023-04-03T11:16:43;22.90;40.20
51613;DHT22;37694;51.748;14.326;2023-04-03T11:19:13;22.90;40.10
51613;DHT22;37694;51.748;14.326;2023-04-03T11:22:32;22.90;40.20
51613;DHT22;37694;51.748;14.326;2023-04-03T11:24:33;22.90;40.00
51613;DHT22;37694;51.748;14.326;2023-04-03T11:27:02;22.90;40.20
51613;DHT22;37694;51.748;14.326;2023-04-03T11:29:34;22.90;40.10
51613;DHT22;37694;51.748;14.326;2023-04-03T11:35:19;22.90;39.90
51613;DHT22;37694;51.748;14.326;2023-04-03T11:37:48;22.80;40.00
51613;DHT22;37694;51.748;14.326;2023-04-03T11:42:45;22.80;39.90
51613;DHT22;37694;51.748;14.326;2023-04-03T12:13:36;22.80;39.70
51613;DHT22;37694;51.748;14.326;2023-04-03T12:16:03;22.70;39.80
51613;DHT22;37694;51.748;14.326;2023-04-03T12:21:15;22.70;39.70
51613;DHT22;37694;51.748;14.326;2023-04-03T12:24:00;22.70;39.80
51613;DHT22;37694;51.748;14.326;2023-04-03T12:48:48;22.60;39.50
51613;DHT22;37694;51.748;14.326;2023-04-03T12:53:58;22.70;39.50
51613;DHT22;37694;51.748;14.326;2023-04-03T12:56:30;22.60;39.50
51613;DHT22;37694;51.748;14.326;2023-04-03T13:01:43;22.70;39.30
51613;DHT22;37694;51.748;14.326;2023-04-03T13:04:10;22.60;39.40
51613;DHT22;37694;51.748;14.326;2023-04-03T13:06:42;22.60;39.30
51613;DHT22;37694;51.748;14.326;2023-04-03T13:09:22;22.70;39.30
51613;DHT22;37694;51.748;14.326;2023-04-03T13:11:52;22.60;39.10
51613;DHT22;37694;51.748;14.326;2023-04-03T13:14:23;22.60;39.20
51613;DHT22;37694;51.748;14.326;2023-04-03T13:16:59;22.60;39.20
51613;DHT22;37694;51.748;14.326;2023-04-03T13:19:27;22.60;39.20
51613;DHT22;37694;51.748;14.326;2023-04-03T13:22:02;22.60;39.30
51613;DHT22;37694;51.748;14.326;2023-04-03T13:24:33;22.60;39.20
51613;DHT22;37694;51.748;14.326;2023-04-03T13:26:59;22.60;39.20
51613;DHT22;37694;51.748;14.326;2023-04-03T13:29:29;22.60;39.20
51613;DHT22;37694;51.748;14.326;2023-04-03T13:31:57;22.60;39.00
51613;DHT22;37694;51.748;14.326;2023-04-03T13:34:26;22.50;39.00
51613;DHT22;37694;51.748;14.326;2023-04-03T13:39:29;22.50;39.00
51613;DHT22;37694;51.748;14.326;2023-04-03T13:42:00;22.50;39.00
51613;DHT22;37694;51.748;14.326;2023-04-03T13:44:35;22.50;39.10
51613;DHT22;37694;51.748;14.326;2023-04-03T13:47:15;22.50;39.10
51613;DHT22;37694;51.748;14.326;2023-04-03T13:50:12;22.50;39.10
51613;DHT22;37694;51.748;14.326;2023-04-03T13:53:10;22.50;38.80
51613;DHT22;37694;51.748;14.326;2023-04-03T13:55:37;22.50;38.90
51613;DHT22;37694;51.748;14.326;2023-04-03T14:00:36;22.50;39.10
51613;DHT22;37694;51.748;14.326;2023-04-03T14:03:11;22.40;39.00
51613;DHT22;37694;51.748;14.326;2023-04-03T14:05:37;22.40;39.10
51613;DHT22;37694;51.748;14.326;2023-04-03T14:08:03;22.40;39.10
51613;DHT22;37694;51.748;14.326;2023-04-03T14:10:30;22.40;39.00
51613;DHT22;37694;51.748;14.326;2023-04-03T14:12:55;22.40;39.00
51613;DHT22;37694;51.748;14.326;2023-04-03T14:15:28;22.40;39.10
51613;DHT22;37694;51.748;14.326;2023-04-03T14:17:55;22.40;38.80
51613;DHT22;37694;51.748;14.326;2023-04-03T14:20:24;22.40;37.90
51613;DHT22;37694;51.748;14.326;2023-04-03T14:22:51;22.40;38.30
51613;DHT22;37694;51.748;14.326;2023-04-03T14:25:18;22.40;38.50
51613;DHT22;37694;51.748;14.326;2023-04-03T14:27:48;22.40;38.50
51613;DHT22;37694;51.748;14.326;2023-04-03T14:32:52;22.50;38.50
51613;DHT22;37694;51.748;14.326;2023-04-03T14:35:18;22.50;38.60
51613;DHT22;37694;51.748;14.326;2023-04-03T14:37:45;22.50;38.80
51613;DHT22;37694;51.748;14.326;2023-04-03T14:40:15;22.60;38.90
51613;DHT22;37694;51.748;14.326;2023-04-03T14:42:41;22.60;38.90
51613;DHT22;37694;51.748;14.326;2023-04-03T14:45:10;22.70;39.10
51613;DHT22;37694;51.748;14.326;2023-04-03T14:47:44;22.70;39.20
51613;DHT22;37694;51.748;14.326;2023-04-03T14:50:18;22.70;40.70
51613;DHT22;37694;51.748;14.326;2023-04-03T14:52:47;22.80;40.40
51613;DHT22;37694;51.748;14.326;2023-04-03T14:55:15;22.80;40.00
51613;DHT22;37694;51.748;14.326;2023-04-03T14:57:41;22.90;40.30
51613;DHT22;37694;51.748;14.326;2023-04-03T15:00:13;22.90;40.10
51613;DHT22;37694;51.748;14.326;2023-04-03T15:02:39;23.00;40.30
51613;DHT22;37694;51.748;14.326;2023-04-03T15:05:08;23.10;40.40
51613;DHT22;37694;51.748;14.326;2023-04-03T15:07:36;23.00;40.30
51613;DHT22;37694;51.748;14.326;2023-04-03T15:10:26;23.10;40.50
51613;DHT22;37694;51.748;14.326;2023-04-03T15:12:53;23.10;40.20
51613;DHT22;37694;51.748;14.326;2023-04-03T15:15:20;23.10;40.70
51613;DHT22;37694;51.748;14.326;2023-04-03T15:17:47;23.10;40.60
51613;DHT22;37694;51.748;14.326;2023-04-03T15:20:18;23.10;40.30
51613;DHT22;37694;51.748;14.326;2023-04-03T15:22:44;23.10;40.00
51613;DHT22;37694;51.748;14.326;2023-04-03T15:25:10;23.10;39.90
51613;DHT22;37694;51.748;14.326;2023-04-03T15:27:36;23.10;39.70
51613;DHT22;37694;51.748;14.326;2023-04-03T15:30:04;23.10;39.70
51613;DHT22;37694;51.748;14.326;2023-04-03T15:32:31;23.10;39.70
51613;DHT22;37694;51.748;14.326;2023-04-03T15:34:56;23.10;39.70
51613;DHT22;37694;51.748;14.326;2023-04-03T15:37:22;23.00;39.60
51613;DHT22;37694;51.748;14.326;2023-04-03T15:39:48;23.10;39.70
51613;DHT22;37694;51.748;14.326;2023-04-03T15:42:14;23.00;39.80
51613;DHT22;37694;51.748;14.326;2023-04-03T15:44:39;23.00;39.80
51613;DHT22;37694;51.748;14.326;2023-04-03T15:47:05;23.00;39.90
51613;DHT22;37694;51.748;14.326;2023-04-03T15:49:33;23.00;39.90
51613;DHT22;37694;51.748;14.326;2023-04-03T15:51:59;23.00;39.90
51613;DHT22;37694;51.748;14.326;2023-04-03T15:54:25;23.00;39.70
51613;DHT22;37694;51.748;14.326;2023-04-03T15:56:52;23.00;39.60
51613;DHT22;37694;51.748;14.326;2023-04-03T15:59:18;22.90;39.50
51613;DHT22;37694;51.748;14.326;2023-04-03T16:01:44;23.00;39.60
51613;DHT22;37694;51.748;14.326;2023-04-03T16:04:10;23.00;39.70
51613;DHT22;37694;51.748;14.326;2023-04-03T16:06:36;22.90;40.20
51613;DHT22;37694;51.748;14.326;2023-04-03T16:09:03;23.00;39.80
51613;DHT22;37694;51.748;14.326;2023-04-03T16:11:29;23.00;39.90
51613;DHT22;37694;51.748;14.326;2023-04-03T16:13:55;23.00;40.00
51613;DHT22;37694;51.748;14.326;2023-04-03T16:16:22;23.10;39.90
51613;DHT22;37694;51.748;14.326;2023-04-03T16:18:48;23.20;39.70
51613;DHT22;37694;51.748;14.326;2023-04-03T16:21:16;23.30;39.80
51613;DHT22;37694;51.748;14.326;2023-04-03T16:23:43;23.30;39.70
51613;DHT22;37694;51.748;14.326;2023-04-03T16:26:09;23.40;39.70
51613;DHT22;37694;51.748;14.326;2023-04-03T16:28:34;23.40;39.50
51613;DHT22;37694;51.748;14.326;2023-04-03T16:31:01;23.40;39.60
51613;DHT22;37694;51.748;14.326;2023-04-03T16:33:27;23.50;39.70
51613;DHT22;37694;51.748;14.326;2023-04-03T16:35:53;23.50;39.70
51613;DHT22;37694;51.748;14.326;2023-04-03T16:38:19;23.50;39.70
51613;DHT22;37694;51.748;14.326;2023-04-03T16:40:45;23.50;39.60
51613;DHT22;37694;51.748;14.326;2023-04-03T16:43:11;23.60;39.60
51613;DHT22;37694;51.748;14.326;2023-04-03T16:45:37;23.60;39.60
51613;DHT22;37694;51.748;14.326;2023-04-03T16:48:03;23.70;39.60
51613;DHT22;37694;51.748;14.326;2023-04-03T16:50:28;23.70;39.60
51613;DHT22;37694;51.748;14.326;2023-04-03T16:52:54;23.70;39.40
51613;DHT22;37694;51.748;14.326;2023-04-03T16:55:20;23.80;39.30
51613;DHT22;37694;51.748;14.326;2023-04-03T16:57:46;23.90;39.40
51613;DHT22;37694;51.748;14.326;2023-04-03T17:00:12;23.90;39.30
51613;DHT22;37694;51.748;14.326;2023-04-03T17:02:39;24.00;39.20
51613;DHT22;37694;51.748;14.326;2023-04-03T17:05:06;24.00;39.40
51613;DHT22;37694;51.748;14.326;2023-04-03T17:07:32;24.10;39.50
51613;DHT22;37694;51.748;14.326;2023-04-03T17:09:59;24.10;39.50
51613;DHT22;37694;51.748;14.326;2023-04-03T17:12:25;24.10;39.30
51613;DHT22;37694;51.748;14.326;2023-04-03T17:14:51;24.10;39.30
51613;DHT22;37694;51.748;14.326;2023-04-03T17:17:21;24.10;39.40
51613;DHT22;37694;51.748;14.326;2023-04-03T17:19:47;24.10;39.40
51613;DHT22;37694;51.748;14.326;2023-04-03T17:22:13;24.20;39.60
51613;DHT22;37694;51.748;14.326;2023-04-03T17:24:38;24.20;39.80
51613;DHT22;37694;51.748;14.326;2023-04-03T17:27:04;24.20;39.90
51613;DHT22;37694;51.748;14.326;2023-04-03T17:29:30;24.10;39.80
51613;DHT22;37694;51.748;14.326;2023-04-03T17:31:55;24.10;39.80